createdAt,value
2023-05-01T03:58:44.917Z,56.00
2023-05-01T03:59:44.870Z,60.00
2023-05-01T04:00:44.885Z,68.00
2023-05-01T04:01:44.885Z,76.00
2023-05-01T04:02:44.930Z,80.00
2023-05-01T04:03:44.929Z,84.00
2023-05-01T04:04:44.822Z,92.00
2023-05-01T04:05:44.805Z,104.00
2023-05-01T04:06:44.998Z,108.00
2023-05-01T04:07:44.826Z,120.00
2023-05-01T04:08:44.795Z,124.00
2023-05-01T04:09:44.808Z,132.00
2023-05-01T04:10:44.785Z,144.00
2023-05-01T04:11:44.778Z,152.00
2023-05-01T04:12:44.782Z,160.00
2023-05-01T04:13:44.757Z,172.00
2023-05-01T04:14:44.769Z,180.00
2023-05-01T04:15:44.786Z,188.00
2023-05-01T04:16:44.760Z,200.00
2023-05-01T04:17:44.787Z,208.00
2023-05-01T04:18:44.768Z,220.00
2023-05-01T04:19:44.765Z,228.00
2023-05-01T04:20:44.739Z,236.00
2023-05-01T04:21:44.735Z,248.00
2023-05-01T04:22:44.724Z,256.00
2023-05-01T04:23:44.716Z,264.00
2023-05-01T04:24:44.734Z,272.00
2023-05-01T04:25:44.704Z,284.00
2023-05-01T04:26:44.712Z,296.00
2023-05-01T04:27:44.733Z,304.00
2023-05-01T04:28:44.714Z,316.00
2023-05-01T04:29:44.690Z,332.00
2023-05-01T04:30:44.703Z,344.00
2023-05-01T04:31:44.741Z,360.00
2023-05-01T04:32:44.774Z,368.00
2023-05-01T04:33:44.697Z,384.00
2023-05-01T04:34:44.665Z,400.00
2023-05-01T04:35:44.664Z,416.00
2023-05-01T04:36:44.678Z,432.00
2023-05-01T04:37:44.682Z,448.00
2023-05-01T04:38:44.657Z,464.00
2023-05-01T04:39:44.667Z,472.00
2023-05-01T04:40:44.657Z,488.00
2023-05-01T04:41:44.640Z,500.00
2023-05-01T04:42:44.675Z,516.00
2023-05-01T04:43:44.666Z,532.00
2023-05-01T04:44:44.657Z,544.00
2023-05-01T04:45:44.667Z,560.00
2023-05-01T04:46:44.683Z,576.00
2023-05-01T04:47:44.650Z,600.00
2023-05-01T04:48:44.623Z,628.00
2023-05-01T04:49:44.662Z,656.00
2023-05-01T04:50:44.625Z,676.00
2023-05-01T04:51:44.615Z,684.00
2023-05-01T04:52:44.647Z,724.00
2023-05-01T04:53:44.604Z,772.00
2023-05-01T04:54:44.611Z,796.00
2023-05-01T04:55:44.645Z,812.00
2023-05-01T04:56:44.616Z,792.00
2023-05-01T04:57:44.617Z,776.00
2023-05-01T04:58:44.622Z,788.00
2023-05-01T04:59:44.591Z,808.00
2023-05-01T05:00:44.621Z,824.00
2023-05-01T05:01:44.577Z,856.00
2023-05-01T05:02:44.699Z,892.00
2023-05-01T05:03:46.532Z,920.00
2023-05-01T05:04:44.568Z,944.00
2023-05-01T05:05:44.589Z,984.00
2023-05-01T05:06:44.605Z,1032.00
2023-05-01T05:07:44.580Z,1080.00
2023-05-01T05:08:44.586Z,1164.00
2023-05-01T05:09:44.559Z,1188.00
2023-05-01T05:10:44.552Z,1156.00
2023-05-01T05:11:44.545Z,1128.00
2023-05-01T05:12:44.550Z,1164.00
2023-05-01T05:13:44.552Z,1188.00
2023-05-01T05:14:44.552Z,1188.00
2023-05-01T05:15:44.528Z,1132.00
2023-05-01T05:16:44.559Z,1084.00
2023-05-01T05:17:44.624Z,1072.00
2023-05-01T05:18:44.583Z,1060.00
2023-05-01T05:19:44.516Z,1048.00
2023-05-01T05:20:44.548Z,1052.00
2023-05-01T05:21:44.514Z,1060.00
2023-05-01T05:22:44.535Z,1072.00
2023-05-01T05:23:44.502Z,1080.00
2023-05-01T05:24:44.499Z,1088.00
2023-05-01T05:25:44.500Z,1108.00
2023-05-01T05:26:44.488Z,1156.00
2023-05-01T05:27:44.514Z,1192.00
2023-05-01T05:28:44.496Z,1236.00
2023-05-01T05:29:44.490Z,1260.00
2023-05-01T05:30:44.510Z,1252.00
2023-05-01T05:31:44.496Z,1236.00
2023-05-01T05:32:44.572Z,1240.00
2023-05-01T05:33:44.491Z,1260.00
2023-05-01T05:34:44.494Z,1272.00
2023-05-01T05:35:44.467Z,1256.00
2023-05-01T05:36:44.469Z,1248.00
2023-05-01T05:37:46.094Z,1308.00
2023-05-01T05:38:44.479Z,1420.00
2023-05-01T05:39:44.463Z,1528.00
2023-05-01T05:40:44.442Z,1696.00
2023-05-01T05:41:44.473Z,1740.00
2023-05-01T05:42:44.454Z,1776.00
2023-05-01T05:43:44.453Z,1868.00
2023-05-01T05:44:44.441Z,1944.00
2023-05-01T05:45:44.480Z,2068.00
2023-05-01T05:46:44.435Z,2148.00
2023-05-01T05:47:44.475Z,2168.00
2023-05-01T05:48:44.436Z,2012.00
2023-05-01T05:49:44.429Z,2164.00
2023-05-01T05:50:44.451Z,2204.00
2023-05-01T05:51:44.439Z,2116.00
2023-05-01T05:52:44.416Z,1936.00
2023-05-01T05:53:44.411Z,2244.00
2023-05-01T05:54:44.419Z,2340.00
2023-05-01T05:55:44.414Z,2448.00
2023-05-01T05:56:44.420Z,2404.00
2023-05-01T05:57:44.402Z,2132.00
2023-05-01T05:58:44.485Z,2180.00
2023-05-01T05:59:44.414Z,2300.00
2023-05-01T06:00:44.402Z,2360.00
2023-05-01T06:01:44.412Z,2348.00
2023-05-01T06:02:44.493Z,2480.00
2023-05-01T06:03:44.440Z,2568.00
2023-05-01T06:04:44.382Z,2648.00
2023-05-01T06:05:44.460Z,2832.00
2023-05-01T06:06:44.410Z,2892.00
2023-05-01T06:07:44.405Z,2712.00
2023-05-01T06:08:44.376Z,2620.00
2023-05-01T06:09:44.366Z,2692.00
2023-05-01T06:10:44.404Z,2844.00
2023-05-01T06:11:44.379Z,3224.00
2023-05-01T06:12:48.604Z,3340.00
2023-05-01T06:13:44.350Z,3296.00
2023-05-01T06:14:44.363Z,3456.00
2023-05-01T06:15:44.507Z,3456.00
2023-05-01T06:16:44.351Z,3388.00
2023-05-01T06:17:44.401Z,3368.00
2023-05-01T06:18:45.711Z,3024.00
2023-05-01T06:19:44.347Z,2828.00
2023-05-01T06:20:44.368Z,2592.00
2023-05-01T06:21:44.345Z,2636.00
2023-05-01T06:22:44.485Z,2576.00
2023-05-01T06:23:44.356Z,2364.00
2023-05-01T06:24:44.342Z,2492.00
2023-05-01T06:25:44.327Z,2524.00
2023-05-01T06:26:44.325Z,2648.00
2023-05-01T06:27:44.341Z,2776.00
2023-05-01T06:28:44.350Z,2748.00
2023-05-01T06:29:44.339Z,3160.00
2023-05-01T06:30:44.313Z,3276.00
2023-05-01T06:31:44.353Z,3088.00
2023-05-01T06:32:44.343Z,3320.00
2023-05-01T06:33:44.325Z,3380.00
2023-05-01T06:34:44.337Z,3316.00
2023-05-01T06:35:44.306Z,3580.00
2023-05-01T06:36:44.340Z,3756.00
2023-05-01T06:37:44.295Z,3696.00
2023-05-01T06:38:44.306Z,3440.00
2023-05-01T06:39:44.306Z,3740.00
2023-05-01T06:40:44.311Z,3492.00
2023-05-01T06:41:44.319Z,3008.00
2023-05-01T06:42:44.285Z,2776.00
2023-05-01T06:43:44.308Z,2464.00
2023-05-01T06:44:44.291Z,2744.00
2023-05-01T06:45:44.318Z,3428.00
2023-05-01T06:46:44.341Z,3960.00
2023-05-01T06:47:44.340Z,4160.00
2023-05-01T06:48:44.304Z,4048.00
2023-05-01T06:49:44.271Z,4268.00
2023-05-01T06:50:44.283Z,4560.00
2023-05-01T06:51:44.277Z,4800.00
2023-05-01T06:52:44.305Z,4696.00
2023-05-01T06:53:44.266Z,4312.00
2023-05-01T06:54:44.292Z,4576.00
2023-05-01T06:55:44.272Z,4280.00
2023-05-01T06:56:44.259Z,4472.00
2023-05-01T06:57:44.273Z,5136.00
2023-05-01T06:58:44.277Z,5096.00
2023-05-01T06:59:44.265Z,5052.00
2023-05-01T07:00:44.290Z,5220.00
2023-05-01T07:01:44.266Z,5108.00
2023-05-01T07:02:44.354Z,4604.00
2023-05-01T07:03:44.296Z,4756.00
2023-05-01T07:04:44.323Z,4756.00
2023-05-01T07:05:44.257Z,4508.00
2023-05-01T07:06:44.305Z,4140.00
2023-05-01T07:07:50.474Z,3852.00
2023-05-01T07:08:44.269Z,3784.00
2023-05-01T07:09:44.276Z,3860.00
2023-05-01T07:10:44.273Z,4264.00
2023-05-01T07:11:44.243Z,4396.00
2023-05-01T07:12:44.264Z,4432.00
2023-05-01T07:13:44.244Z,4576.00
2023-05-01T07:14:44.263Z,4076.00
2023-05-01T07:15:44.233Z,3812.00
2023-05-01T07:16:44.305Z,4160.00
2023-05-01T07:17:44.346Z,3804.00
2023-05-01T07:18:44.232Z,4020.00
2023-05-01T07:19:44.231Z,4012.00
2023-05-01T07:20:44.285Z,3764.00
2023-05-01T07:21:44.253Z,3532.00
2023-05-01T07:22:44.232Z,3344.00
2023-05-01T07:23:44.262Z,2864.00
2023-05-01T07:24:44.239Z,2752.00
2023-05-01T07:25:44.254Z,2752.00
2023-05-01T07:26:44.266Z,2748.00
2023-05-01T07:27:44.226Z,2736.00
2023-05-01T07:28:44.242Z,2848.00
2023-05-01T07:29:44.229Z,2940.00
2023-05-01T07:30:44.251Z,3084.00
2023-05-01T07:31:44.284Z,3112.00
2023-05-01T07:32:44.297Z,3224.00
2023-05-01T07:33:44.227Z,3132.00
2023-05-01T07:34:44.217Z,3124.00
2023-05-01T07:35:44.236Z,3184.00
2023-05-01T07:36:44.237Z,3164.00
2023-05-01T07:37:44.227Z,3064.00
2023-05-01T07:38:44.240Z,2904.00
2023-05-01T07:39:44.209Z,2868.00
2023-05-01T07:40:44.223Z,2916.00
2023-05-01T07:41:44.261Z,2900.00
2023-05-01T07:42:44.235Z,2820.00
2023-05-01T07:43:44.206Z,2824.00
2023-05-01T07:44:44.220Z,2824.00
2023-05-01T07:45:44.284Z,3148.00
2023-05-01T07:46:44.205Z,3188.00
2023-05-01T07:47:44.246Z,3176.00
2023-05-01T07:48:44.197Z,3468.00
2023-05-01T07:49:44.208Z,3436.00
2023-05-01T07:50:44.198Z,3960.00
2023-05-01T07:51:44.210Z,4340.00
2023-05-01T07:52:44.217Z,4500.00
2023-05-01T07:53:44.198Z,4456.00
2023-05-01T07:54:44.186Z,4584.00
2023-05-01T07:55:44.223Z,4552.00
2023-05-01T07:56:44.191Z,4296.00
2023-05-01T07:57:44.198Z,4660.00
2023-05-01T07:58:44.223Z,4780.00
2023-05-01T07:59:44.196Z,4564.00
2023-05-01T08:00:44.184Z,4632.00
2023-05-01T08:01:44.183Z,4444.00
2023-05-01T08:02:44.260Z,4324.00
2023-05-01T08:03:44.279Z,4136.00
2023-05-01T08:04:44.309Z,4216.00
2023-05-01T08:05:44.211Z,4192.00
2023-05-01T08:06:44.250Z,3988.00
2023-05-01T08:07:44.191Z,4020.00
2023-05-01T08:08:44.189Z,4028.00
2023-05-01T08:09:44.281Z,4096.00
2023-05-01T08:12:16.757Z,4184.00
2023-05-01T08:13:16.732Z,4172.00
2023-05-01T08:14:16.774Z,4264.00
2023-05-01T08:15:16.726Z,4344.00
2023-05-01T08:16:16.767Z,4416.00
2023-05-01T08:17:16.758Z,4476.00
2023-05-01T08:18:16.731Z,4504.00
2023-05-01T08:19:16.742Z,4496.00
2023-05-01T08:20:16.718Z,4380.00
2023-05-01T08:21:16.735Z,4460.00
2023-05-01T08:22:16.740Z,4440.00
2023-05-01T08:23:16.772Z,4172.00
2023-05-01T08:24:16.736Z,4132.00
2023-05-01T08:25:16.764Z,4056.00
2023-05-01T08:26:16.740Z,3984.00
2023-05-01T08:27:16.720Z,4080.00
2023-05-01T08:28:16.722Z,4116.00
2023-05-01T08:29:16.727Z,4056.00
2023-05-01T08:30:16.767Z,3972.00
2023-05-01T08:31:16.803Z,3860.00
2023-05-01T08:32:16.742Z,3824.00
2023-05-01T08:33:16.742Z,3884.00
2023-05-01T08:34:16.724Z,3836.00
2023-05-01T08:35:16.737Z,3732.00
2023-05-01T08:36:16.721Z,3800.00
2023-05-01T08:37:16.725Z,3616.00
2023-05-01T08:38:16.747Z,3580.00
2023-05-01T08:39:16.709Z,3556.00
2023-05-01T08:40:16.717Z,3724.00
2023-05-01T08:41:16.715Z,3884.00
2023-05-01T08:42:16.752Z,4040.00
2023-05-01T08:43:16.747Z,3952.00
2023-05-01T08:44:16.744Z,3964.00
2023-05-01T08:45:16.730Z,4088.00
2023-05-01T08:46:16.830Z,4148.00
2023-05-01T08:47:16.743Z,4176.00
2023-05-01T08:48:16.711Z,4140.00
2023-05-01T08:49:16.709Z,4108.00
2023-05-01T08:50:16.732Z,4172.00
2023-05-01T08:51:16.751Z,4228.00
2023-05-01T08:52:16.733Z,4392.00
2023-05-01T08:53:16.711Z,4476.00
2023-05-01T08:54:16.700Z,4548.00
2023-05-01T08:55:16.704Z,4644.00
2023-05-01T08:56:16.756Z,4704.00
2023-05-01T08:57:16.731Z,4712.00
2023-05-01T08:58:16.709Z,4628.00
2023-05-01T08:59:16.709Z,4540.00
2023-05-01T09:00:16.717Z,4540.00
2023-05-01T09:01:16.857Z,4512.00
2023-05-01T09:02:16.815Z,4564.00
2023-05-01T09:03:16.896Z,4564.00
2023-05-01T09:04:16.796Z,4520.00
2023-05-01T09:05:16.688Z,4420.00
2023-05-01T09:06:16.803Z,4332.00
2023-05-01T09:07:16.712Z,4320.00
2023-05-01T09:08:16.712Z,4400.00
2023-05-01T09:09:16.725Z,4240.00
2023-05-01T09:10:16.690Z,4288.00
2023-05-01T09:11:16.736Z,4244.00
2023-05-01T09:12:16.707Z,4132.00
2023-05-01T09:13:16.726Z,4016.00
2023-05-01T09:14:16.728Z,3992.00
2023-05-01T09:15:16.709Z,3868.00
2023-05-01T09:16:16.745Z,3772.00
2023-05-01T09:17:16.691Z,3728.00
2023-05-01T09:18:16.761Z,3600.00
2023-05-01T09:19:16.708Z,3448.00
2023-05-01T09:20:16.719Z,3712.00
2023-05-01T09:21:16.734Z,3708.00
2023-05-01T09:22:16.710Z,3696.00
2023-05-01T09:23:16.718Z,3692.00
2023-05-01T09:24:16.721Z,3696.00
2023-05-01T09:25:16.758Z,3784.00
2023-05-01T09:26:16.700Z,3976.00
2023-05-01T09:27:16.698Z,4000.00
2023-05-01T09:28:16.704Z,3884.00
2023-05-01T09:29:16.715Z,3844.00
2023-05-01T09:30:16.739Z,3728.00
2023-05-01T09:31:16.784Z,3736.00
2023-05-01T09:32:16.782Z,3776.00
2023-05-01T09:33:16.753Z,3816.00
2023-05-01T09:34:16.745Z,3836.00
2023-05-01T09:35:16.716Z,3836.00
2023-05-01T09:36:16.719Z,3824.00
2023-05-01T09:37:16.739Z,3892.00
2023-05-01T09:38:16.751Z,3896.00
2023-05-01T09:39:16.714Z,3832.00
2023-05-01T09:40:16.706Z,3840.00
2023-05-01T09:41:16.696Z,3872.00
2023-05-01T09:42:16.701Z,3952.00
2023-05-01T09:43:16.729Z,3968.00
2023-05-01T09:44:16.711Z,3888.00
2023-05-01T09:45:16.721Z,3904.00
2023-05-01T09:46:16.784Z,3968.00
2023-05-01T09:47:16.755Z,3968.00
2023-05-01T09:48:16.713Z,3908.00
2023-05-01T09:49:16.728Z,3880.00
2023-05-01T09:50:16.729Z,3904.00
2023-05-01T09:51:16.729Z,3980.00
2023-05-01T09:52:16.744Z,4028.00
2023-05-01T09:53:16.712Z,3952.00
2023-05-01T09:54:16.718Z,3952.00
2023-05-01T09:55:16.757Z,3920.00
2023-05-01T09:56:16.711Z,3908.00
2023-05-01T09:57:16.727Z,3796.00
2023-05-01T09:58:16.704Z,3652.00
2023-05-01T09:59:16.727Z,3532.00
2023-05-01T10:00:16.734Z,3532.00
2023-05-01T10:01:16.876Z,3540.00
2023-05-01T10:13:08.659Z,3788.00
2023-05-01T10:14:08.661Z,3748.00
2023-05-01T10:15:23.396Z,3752.00
2023-05-01T10:16:08.648Z,3716.00
2023-05-01T10:17:08.727Z,3708.00
2023-05-01T10:18:08.651Z,3704.00
2023-05-01T10:19:08.621Z,3700.00
2023-05-01T10:20:08.629Z,3776.00
2023-05-01T10:21:08.651Z,3796.00
2023-05-01T10:22:08.632Z,3840.00
2023-05-01T10:23:08.651Z,3864.00
2023-05-01T10:24:08.656Z,3872.00
2023-05-01T10:25:08.617Z,3876.00
2023-05-01T10:26:08.621Z,3832.00
2023-05-01T10:27:08.652Z,3856.00
2023-05-01T10:28:08.653Z,3856.00
2023-05-01T10:29:08.661Z,3872.00
2023-05-01T10:30:08.629Z,3868.00
2023-05-01T10:31:08.672Z,3912.00
2023-05-01T10:32:08.636Z,3928.00
2023-05-01T10:33:08.661Z,3884.00
2023-05-01T10:34:08.656Z,3848.00
2023-05-01T10:35:08.652Z,3768.00
2023-05-01T10:36:08.668Z,3760.00
2023-05-01T10:37:08.664Z,3792.00
2023-05-01T10:38:08.643Z,3724.00
2023-05-01T10:39:08.653Z,3788.00
2023-05-01T10:40:08.663Z,3792.00
2023-05-01T10:41:08.670Z,3816.00
2023-05-01T10:42:08.761Z,3812.00
2023-05-01T10:43:08.645Z,3800.00
2023-05-01T10:44:08.659Z,3832.00
2023-05-01T10:45:08.688Z,3896.00
2023-05-01T10:46:08.772Z,4040.00
2023-05-01T10:47:08.650Z,4024.00
2023-05-01T10:48:08.750Z,4064.00
2023-05-01T10:49:08.640Z,4148.00
2023-05-01T10:50:08.695Z,4192.00
2023-05-01T10:51:08.656Z,4248.00
2023-05-01T10:52:08.647Z,4272.00
2023-05-01T10:53:08.738Z,4288.00
2023-05-01T10:54:08.653Z,4308.00
2023-05-01T10:55:08.668Z,4360.00
2023-05-01T10:56:08.704Z,4404.00
2023-05-01T10:57:08.672Z,4432.00
2023-05-01T10:58:08.679Z,4468.00
2023-05-01T10:59:08.669Z,4448.00
2023-05-01T11:00:08.691Z,4520.00
2023-05-01T11:01:08.708Z,4540.00
2023-05-01T11:02:08.721Z,4548.00
2023-05-01T11:03:08.766Z,4600.00
2023-05-01T11:04:08.684Z,4544.00
2023-05-01T11:05:08.717Z,4660.00
2023-05-01T11:06:09.077Z,4624.00
2023-05-01T11:07:08.880Z,4732.00
2023-05-01T11:08:08.730Z,4760.00
2023-05-01T11:09:08.718Z,4892.00
2023-05-01T11:10:08.701Z,5004.00
2023-05-01T11:11:08.744Z,5092.00
2023-05-01T11:12:08.711Z,5192.00
2023-05-01T11:13:08.700Z,5352.00
2023-05-01T11:14:08.752Z,5492.00
2023-05-01T11:15:08.809Z,5676.00
2023-05-01T11:16:08.735Z,5804.00
2023-05-01T11:17:08.748Z,5908.00
2023-05-01T11:18:08.779Z,6012.00
2023-05-01T11:19:08.751Z,6148.00
2023-05-01T11:20:08.759Z,6224.00
2023-05-01T11:21:08.727Z,6332.00
2023-05-01T11:22:08.751Z,6408.00
2023-05-01T11:23:08.735Z,6472.00
2023-05-01T11:24:08.757Z,6540.00
2023-05-01T11:25:08.760Z,6600.00
2023-05-01T11:26:08.752Z,6656.00
2023-05-01T11:27:08.765Z,6440.00
2023-05-01T11:28:08.772Z,6120.00
2023-05-01T11:29:08.781Z,5520.00
2023-05-01T11:30:08.770Z,5772.00
2023-05-01T11:31:08.777Z,5788.00
2023-05-01T11:32:08.910Z,6056.00
2023-05-01T11:33:10.759Z,6376.00
2023-05-01T11:34:08.833Z,6812.00
2023-05-01T11:35:08.799Z,5384.00
2023-05-01T11:36:08.800Z,5432.00
2023-05-01T11:37:08.778Z,5416.00
2023-05-01T11:38:08.789Z,4776.00
2023-05-01T11:39:08.808Z,5632.00
2023-05-01T11:40:08.796Z,4428.00
2023-05-01T11:41:08.807Z,6972.00
2023-05-01T11:42:08.984Z,7024.00
2023-05-01T11:43:08.813Z,6996.00
2023-05-01T11:44:08.822Z,7036.00
2023-05-01T11:45:08.826Z,7180.00
2023-05-01T11:46:08.855Z,7372.00
2023-05-01T11:47:08.860Z,7560.00
2023-05-01T11:48:08.873Z,7672.00
2023-05-01T11:49:08.866Z,7700.00
2023-05-01T11:50:08.860Z,7716.00
2023-05-01T11:51:08.868Z,7688.00
2023-05-01T11:52:08.853Z,7416.00
2023-05-01T11:53:08.883Z,7600.00
2023-05-01T11:54:08.860Z,6404.00
2023-05-01T11:55:08.865Z,5884.00
2023-05-01T11:56:19.532Z,4884.00
2023-05-01T11:57:08.883Z,8180.00
2023-05-01T11:58:08.884Z,7648.00
2023-05-01T11:59:08.896Z,7876.00
2023-05-01T12:00:08.911Z,8156.00
2023-05-01T12:01:08.879Z,8384.00
2023-05-01T12:02:08.909Z,8596.00
2023-05-01T12:03:09.194Z,8820.00
2023-05-01T12:04:08.979Z,8884.00
2023-05-01T12:05:08.955Z,8812.00
2023-05-01T12:06:08.958Z,7832.00
2023-05-01T12:07:08.914Z,7792.00
2023-05-01T12:08:08.939Z,8132.00
2023-05-01T12:09:08.938Z,8720.00
2023-05-01T12:10:08.938Z,7556.00
2023-05-01T12:11:08.954Z,7748.00
2023-05-01T12:12:08.947Z,7720.00
2023-05-01T12:13:09.030Z,8224.00
2023-05-01T12:14:08.966Z,8140.00
2023-05-01T12:15:08.973Z,8140.00
2023-05-01T12:16:08.980Z,8308.00
2023-05-01T12:17:08.999Z,8496.00
2023-05-01T12:18:09.074Z,8388.00
2023-05-01T12:19:08.991Z,9712.00
2023-05-01T12:20:09.064Z,9832.00
2023-05-01T12:21:09.025Z,9972.00
2023-05-01T12:22:09.061Z,9972.00
2023-05-01T12:23:09.000Z,9992.00
2023-05-01T12:24:08.996Z,10096.00
2023-05-01T12:25:09.003Z,10200.00
2023-05-01T12:26:09.009Z,7964.00
2023-05-01T12:27:09.056Z,8964.00
2023-05-01T12:28:09.054Z,9940.00
2023-05-01T12:29:09.037Z,5716.00
2023-05-01T12:30:09.064Z,5688.00
2023-05-01T12:31:09.110Z,5748.00
2023-05-01T12:32:09.193Z,5808.00
2023-05-01T12:33:09.113Z,5976.00
2023-05-01T12:34:09.058Z,6204.00
2023-05-01T12:35:09.119Z,6692.00
2023-05-01T12:36:09.069Z,8980.00
2023-05-01T12:37:09.099Z,9208.00
2023-05-01T12:38:09.107Z,6784.00
2023-05-01T12:39:09.083Z,6772.00
2023-05-01T12:40:09.124Z,7228.00
2023-05-01T12:41:09.213Z,10864.00
2023-05-01T12:43:43.774Z,11404.00
2023-05-01T12:44:41.620Z,12172.00
2023-05-01T12:45:41.646Z,12404.00
2023-05-01T12:46:41.650Z,12056.00
2023-05-01T12:47:41.692Z,11624.00
2023-05-01T12:48:41.640Z,11520.00
2023-05-01T12:49:41.672Z,6372.00
2023-05-01T12:50:41.672Z,5756.00
2023-05-01T12:51:41.656Z,5140.00
2023-05-01T12:52:41.680Z,5036.00
2023-05-01T12:53:41.670Z,10468.00
2023-05-01T12:54:41.730Z,4924.00
2023-05-01T12:55:41.682Z,4864.00
2023-05-01T12:56:41.699Z,4828.00
2023-05-01T12:57:41.702Z,4892.00
2023-05-01T12:58:41.719Z,4848.00
2023-05-01T12:59:41.698Z,4800.00
2023-05-01T13:00:41.723Z,4968.00
2023-05-01T13:01:41.746Z,5040.00
2023-05-01T13:02:41.745Z,4952.00
2023-05-01T13:03:41.758Z,4760.00
2023-05-01T13:04:41.728Z,4884.00
2023-05-01T13:05:41.766Z,4932.00
2023-05-01T13:06:41.753Z,4960.00
2023-05-01T13:07:41.731Z,4956.00
2023-05-01T13:08:41.735Z,5112.00
2023-05-01T13:09:41.733Z,5344.00
2023-05-01T13:10:41.746Z,5180.00
2023-05-01T13:11:41.759Z,4976.00
2023-05-01T13:12:41.749Z,5088.00
2023-05-01T13:13:41.725Z,5284.00
2023-05-01T13:14:41.734Z,5472.00
2023-05-01T13:15:41.742Z,9836.00
2023-05-01T13:16:41.850Z,8520.00
2023-05-01T13:17:41.806Z,7492.00
2023-05-01T13:18:42.448Z,13432.00
2023-05-01T13:19:41.752Z,13824.00
2023-05-01T13:20:41.770Z,13136.00
2023-05-01T13:21:41.783Z,9320.00
2023-05-01T13:22:41.766Z,6144.00
2023-05-01T13:23:41.767Z,6524.00
2023-05-01T13:24:41.795Z,9400.00
2023-05-01T13:25:41.802Z,14376.00
2023-05-01T13:26:41.806Z,15088.00
2023-05-01T13:27:41.805Z,18784.00
2023-05-01T13:28:41.801Z,20640.00
2023-05-01T13:29:41.826Z,23232.00
2023-05-01T13:30:41.811Z,23200.00
2023-05-01T13:31:41.924Z,10992.00
2023-05-01T13:32:41.860Z,25952.00
2023-05-01T13:33:41.797Z,25536.00
2023-05-01T13:34:41.796Z,19552.00
2023-05-01T13:35:41.815Z,18912.00
2023-05-01T13:36:41.802Z,21728.00
2023-05-01T13:37:41.817Z,22400.00
2023-05-01T13:38:41.818Z,20384.00
2023-05-01T13:39:41.836Z,20000.00
2023-05-01T13:40:41.831Z,6368.00
2023-05-01T13:41:41.813Z,5956.00
2023-05-01T13:42:41.836Z,6116.00
2023-05-01T13:43:41.832Z,7072.00
2023-05-01T13:44:41.834Z,7012.00
2023-05-01T13:45:41.883Z,7268.00
2023-05-01T13:46:41.835Z,7984.00
2023-05-01T13:47:41.908Z,20544.00
2023-05-01T13:48:41.845Z,26848.00
2023-05-01T13:49:41.868Z,26848.00
2023-05-01T13:50:41.857Z,26656.00
2023-05-01T13:51:41.857Z,26560.00
2023-05-01T13:52:41.874Z,26656.00
2023-05-01T13:53:41.877Z,26560.00
2023-05-01T13:54:41.897Z,26496.00
2023-05-01T13:55:41.878Z,26624.00
2023-05-01T13:56:41.884Z,7736.00
2023-05-01T13:57:41.898Z,7188.00
2023-05-01T13:58:41.913Z,6652.00
2023-05-01T13:59:41.901Z,6296.00
2023-05-01T14:00:41.910Z,6540.00
2023-05-01T14:01:41.945Z,6408.00
2023-05-01T14:02:42.039Z,5396.00
2023-05-01T14:03:42.051Z,4548.00
2023-05-01T14:04:41.941Z,4236.00
2023-05-01T14:05:41.939Z,4056.00
2023-05-01T14:06:41.957Z,3924.00
2023-05-01T14:07:41.954Z,3876.00
2023-05-01T14:08:41.938Z,3520.00
2023-05-01T14:09:41.981Z,3184.00
2023-05-01T14:10:41.955Z,2952.00
2023-05-01T14:11:41.956Z,2748.00
2023-05-01T14:12:42.023Z,2684.00
2023-05-01T14:13:41.950Z,2620.00
2023-05-01T14:14:41.967Z,2640.00
2023-05-01T14:15:41.954Z,2704.00
2023-05-01T14:16:42.020Z,2776.00
2023-05-01T14:17:42.000Z,2900.00
2023-05-01T14:18:41.980Z,3016.00
2023-05-01T14:19:41.984Z,3056.00
2023-05-01T14:20:41.990Z,3120.00
2023-05-01T14:21:41.982Z,3336.00
2023-05-01T14:22:42.000Z,3548.00
2023-05-01T14:23:42.023Z,3912.00
2023-05-01T14:24:42.001Z,4156.00
2023-05-01T14:25:42.019Z,5424.00
2023-05-01T14:26:42.000Z,4304.00
2023-05-01T14:27:42.013Z,4148.00
2023-05-01T14:28:42.120Z,4096.00
2023-05-01T14:29:42.024Z,4120.00
2023-05-01T14:30:42.108Z,4164.00
2023-05-01T14:31:42.019Z,4208.00
2023-05-01T14:32:42.167Z,4300.00
2023-05-01T14:33:42.019Z,4496.00
2023-05-01T14:34:42.034Z,4868.00
2023-05-01T14:35:42.028Z,5660.00
2023-05-01T14:36:42.004Z,7644.00
2023-05-01T14:37:42.051Z,34656.00
2023-05-01T14:38:42.006Z,48480.00
2023-05-01T14:39:42.034Z,25632.00
2023-05-01T14:40:42.050Z,25792.00
2023-05-01T14:41:42.027Z,45888.00
2023-05-01T14:42:42.030Z,15528.00
2023-05-01T14:43:42.053Z,7940.00
2023-05-01T14:44:42.082Z,6592.00
2023-05-01T14:45:42.067Z,7108.00
2023-05-01T14:46:42.067Z,8104.00
2023-05-01T14:47:42.114Z,9416.00
2023-05-01T14:48:42.072Z,6528.00
2023-05-01T14:49:42.052Z,5852.00
2023-05-01T14:50:42.071Z,6404.00
2023-05-01T14:51:42.071Z,36288.00
2023-05-01T14:52:42.076Z,7592.00
2023-05-01T14:53:42.068Z,10592.00
2023-05-01T14:54:42.068Z,4820.00
2023-05-01T14:55:42.086Z,3732.00
2023-05-01T14:56:42.089Z,3796.00
2023-05-01T14:57:42.093Z,3092.00
2023-05-01T14:58:42.095Z,2652.00
2023-05-01T14:59:42.075Z,2300.00
2023-05-01T15:00:42.117Z,2064.00
2023-05-01T15:01:42.216Z,1876.00
2023-05-01T15:02:42.215Z,1720.00
2023-05-01T15:03:42.133Z,1592.00
2023-05-01T15:04:42.081Z,1504.00
2023-05-01T15:05:42.086Z,1440.00
2023-05-01T15:06:42.203Z,1404.00
2023-05-01T15:07:42.098Z,1384.00
2023-05-01T15:08:42.102Z,1372.00
2023-05-01T15:09:42.093Z,1360.00
2023-05-01T15:10:42.128Z,1340.00
2023-05-01T15:11:42.099Z,1320.00
2023-05-01T15:12:42.112Z,1296.00
2023-05-01T15:13:42.114Z,1272.00
2023-05-01T15:14:42.108Z,1252.00
2023-05-01T15:15:42.124Z,1236.00
2023-05-01T15:16:42.196Z,1232.00
2023-05-01T15:17:42.190Z,1240.00
2023-05-01T15:18:42.104Z,1252.00
2023-05-01T15:19:42.132Z,1264.00
2023-05-01T15:20:42.112Z,1268.00
2023-05-01T15:21:42.137Z,1264.00
2023-05-01T15:22:42.133Z,1248.00
2023-05-01T15:23:42.138Z,1232.00
2023-05-01T15:24:42.113Z,1232.00
2023-05-01T15:25:42.129Z,1236.00
2023-05-01T15:26:42.128Z,1260.00
2023-05-01T15:27:43.421Z,1288.00
2023-05-01T15:28:42.156Z,1316.00
2023-05-01T15:29:42.142Z,1344.00
2023-05-01T15:30:42.131Z,1372.00
2023-05-01T15:31:42.149Z,1392.00
2023-05-01T15:32:42.264Z,1408.00
2023-05-01T15:33:42.189Z,1416.00
2023-05-01T15:34:42.131Z,1404.00
2023-05-01T15:35:42.117Z,1424.00
2023-05-01T15:36:42.116Z,1460.00
2023-05-01T15:37:42.122Z,1512.00
2023-05-01T15:38:42.139Z,1552.00
2023-05-01T15:39:42.122Z,1612.00
2023-05-01T15:40:42.117Z,1684.00
2023-05-01T15:41:42.130Z,1768.00
2023-05-01T15:42:42.130Z,1876.00
2023-05-01T15:43:42.117Z,2012.00
2023-05-01T15:44:42.157Z,2168.00
2023-05-01T15:45:42.260Z,2384.00
2023-05-01T15:46:42.253Z,2640.00
2023-05-01T15:47:42.184Z,2896.00
2023-05-01T15:48:42.161Z,3192.00
2023-05-01T15:49:42.141Z,3504.00
2023-05-01T15:50:42.139Z,3764.00
2023-05-01T15:51:42.162Z,3884.00
2023-05-01T15:52:42.135Z,3848.00
2023-05-01T15:53:42.136Z,3712.00
2023-05-01T15:54:42.127Z,3532.00
2023-05-01T15:55:42.114Z,3300.00
2023-05-01T15:56:42.115Z,3036.00
2023-05-01T15:57:42.129Z,2720.00
2023-05-01T15:58:42.136Z,2416.00
2023-05-01T15:59:42.133Z,2144.00
2023-05-01T16:00:42.146Z,1944.00
2023-05-01T16:12:18.161Z,944.00
2023-05-01T16:13:18.134Z,916.00
2023-05-01T16:14:18.117Z,884.00
2023-05-01T16:15:18.150Z,848.00
2023-05-01T16:16:18.127Z,820.00
2023-05-01T16:17:18.087Z,796.00
2023-05-01T16:18:18.095Z,768.00
2023-05-01T16:19:18.077Z,728.00
2023-05-01T16:20:18.069Z,692.00
2023-05-01T16:21:19.856Z,664.00
2023-05-01T16:22:18.069Z,648.00
2023-05-01T16:23:18.100Z,644.00
2023-05-01T16:24:18.075Z,652.00
2023-05-01T16:25:18.106Z,664.00
2023-05-01T16:26:18.095Z,672.00
2023-05-01T16:27:18.080Z,688.00
2023-05-01T16:28:18.123Z,708.00
2023-05-01T16:29:18.058Z,732.00
2023-05-01T16:30:18.096Z,752.00